createdAt,value
2018-10-06T00:00:26.989Z,11.93
2018-10-06T00:02:55.540Z,11.43
2018-10-06T00:05:24.038Z,11.90
2018-10-06T00:07:52.770Z,12.47
2018-10-06T00:10:21.286Z,13.40
2018-10-06T00:12:49.833Z,12.73
2018-10-06T00:15:18.332Z,10.83
2018-10-06T00:17:46.822Z,12.07
2018-10-06T00:20:15.323Z,11.60
2018-10-06T00:22:43.843Z,13.20
2018-10-06T00:25:12.386Z,15.10
2018-10-06T00:27:40.883Z,12.70
2018-10-06T00:30:09.431Z,14.10
2018-10-06T00:32:37.948Z,12.47
2018-10-06T00:35:06.466Z,12.40
2018-10-06T00:37:34.990Z,13.27
2018-10-06T00:40:03.555Z,13.53
2018-10-06T00:42:32.039Z,13.27
2018-10-06T00:45:00.572Z,15.03
2018-10-06T00:47:29.079Z,13.80
2018-10-06T00:49:57.594Z,13.63
2018-10-06T00:52:26.176Z,12.83
2018-10-06T00:54:54.708Z,13.37
2018-10-06T00:57:23.210Z,15.10
2018-10-06T00:59:51.723Z,13.47
2018-10-06T01:02:20.270Z,12.50
2018-10-06T01:04:48.808Z,12.33
2018-10-06T01:07:17.291Z,11.60
2018-10-06T01:09:45.827Z,10.50
2018-10-06T01:12:14.414Z,11.53
2018-10-06T01:14:42.920Z,11.97
2018-10-06T01:17:11.431Z,11.43
2018-10-06T01:19:39.983Z,12.50
2018-10-06T01:22:08.546Z,11.60
2018-10-06T01:24:37.060Z,11.17
2018-10-06T01:27:05.618Z,11.60
2018-10-06T01:29:34.325Z,11.73
2018-10-06T01:32:04.342Z,11.20
2018-10-06T01:34:33.226Z,11.00
2018-10-06T01:37:02.019Z,11.83
2018-10-06T01:39:31.005Z,10.73
2018-10-06T01:41:59.619Z,11.37
2018-10-06T01:44:28.179Z,12.03
2018-10-06T01:46:56.708Z,10.97
2018-10-06T01:49:25.278Z,12.60
2018-10-06T01:51:53.766Z,11.30
2018-10-06T01:54:22.320Z,12.07
2018-10-06T01:56:50.847Z,12.03
2018-10-06T01:59:19.360Z,11.30
2018-10-06T02:01:47.877Z,10.60
2018-10-06T02:04:16.426Z,10.20
2018-10-06T02:06:44.969Z,11.80
2018-10-06T02:09:13.459Z,10.30
2018-10-06T02:11:41.983Z,11.43
2018-10-06T02:14:10.494Z,10.37
2018-10-06T02:16:39.020Z,12.30
2018-10-06T02:19:07.547Z,12.23
2018-10-06T02:21:36.072Z,10.83
2018-10-06T02:24:04.573Z,10.97
2018-10-06T02:26:33.289Z,11.07
2018-10-06T02:29:01.824Z,10.53
2018-10-06T02:31:30.374Z,10.63
2018-10-06T02:33:58.895Z,10.93
2018-10-06T02:36:27.427Z,10.90
2018-10-06T02:38:55.993Z,9.97
2018-10-06T02:41:24.499Z,11.77
2018-10-06T02:43:53.085Z,9.10
2018-10-06T02:46:21.660Z,9.47
2018-10-06T02:48:50.175Z,9.50
2018-10-06T02:51:18.718Z,10.03
2018-10-06T02:53:47.259Z,9.43
2018-10-06T02:56:15.771Z,10.60
2018-10-06T02:58:44.295Z,10.70
2018-10-06T03:01:12.814Z,9.90
2018-10-06T03:03:41.340Z,10.70
2018-10-06T03:06:09.886Z,10.60
2018-10-06T03:08:38.388Z,9.83
2018-10-06T03:11:06.955Z,10.00
2018-10-06T03:13:35.446Z,10.67
2018-10-06T03:16:03.983Z,10.47
2018-10-06T03:18:32.483Z,10.87
2018-10-06T03:21:01.020Z,9.47
2018-10-06T03:23:29.523Z,10.30
2018-10-06T03:25:58.055Z,9.80
2018-10-06T03:28:26.559Z,9.57
2018-10-06T03:30:55.094Z,10.13
2018-10-06T03:33:23.678Z,8.90
2018-10-06T03:35:52.256Z,10.13
2018-10-06T03:38:20.742Z,10.10
2018-10-06T03:40:49.279Z,10.20
2018-10-06T03:43:17.833Z,9.70
2018-10-06T03:45:46.353Z,10.57
2018-10-06T03:48:14.914Z,10.60
2018-10-06T03:50:43.439Z,11.10
2018-10-06T03:53:11.974Z,11.00
2018-10-06T03:55:40.498Z,9.37
2018-10-06T03:58:09.110Z,10.73
2018-10-06T04:00:37.634Z,9.80
2018-10-06T04:03:06.168Z,10.60
2018-10-06T04:05:34.780Z,9.30
2018-10-06T04:08:03.316Z,10.30
2018-10-06T04:10:31.800Z,10.40
2018-10-06T04:13:00.337Z,10.20
2018-10-06T04:15:28.851Z,11.40
2018-10-06T04:17:57.340Z,11.20
2018-10-06T04:20:25.887Z,11.30
2018-10-06T04:22:54.407Z,11.17
2018-10-06T04:25:22.965Z,11.43
2018-10-06T04:27:51.556Z,12.67
2018-10-06T04:30:20.127Z,12.70
2018-10-06T04:32:48.641Z,13.80
2018-10-06T04:35:17.213Z,12.90
2018-10-06T04:37:45.703Z,12.13
2018-10-06T04:40:14.236Z,11.67
2018-10-06T04:42:42.755Z,11.90
2018-10-06T04:45:11.273Z,10.60
2018-10-06T04:47:39.839Z,12.50
2018-10-06T04:50:08.381Z,10.60
2018-10-06T04:52:36.954Z,11.20
2018-10-06T04:55:05.481Z,10.60
2018-10-06T04:57:34.019Z,10.13
2018-10-06T05:00:02.542Z,11.50
2018-10-06T05:02:31.046Z,12.67
2018-10-06T05:04:59.567Z,11.50
2018-10-06T05:07:28.122Z,11.13
2018-10-06T05:09:56.638Z,12.17
2018-10-06T05:12:25.194Z,11.00
2018-10-06T05:14:53.719Z,10.03
2018-10-06T05:17:22.214Z,9.97
2018-10-06T05:19:50.756Z,10.40
2018-10-06T05:22:19.281Z,10.37
2018-10-06T05:24:47.800Z,10.03
2018-10-06T05:27:16.330Z,9.77
2018-10-06T05:29:44.834Z,10.20
2018-10-06T05:32:13.349Z,9.80
2018-10-06T05:34:41.935Z,9.57
2018-10-06T05:37:10.507Z,9.00
2018-10-06T05:39:39.032Z,9.80
2018-10-06T05:42:07.578Z,9.23
2018-10-06T05:44:36.132Z,9.50
2018-10-06T05:47:04.724Z,9.60
2018-10-06T05:49:33.236Z,10.00
2018-10-06T05:52:01.810Z,10.47
2018-10-06T05:54:30.338Z,9.27
2018-10-06T05:56:58.892Z,10.20
2018-10-06T05:59:27.493Z,10.43
2018-10-06T06:01:56.046Z,9.63
2018-10-06T06:04:24.535Z,9.40
2018-10-06T06:06:53.096Z,9.87
2018-10-06T06:09:21.651Z,10.40
2018-10-06T06:11:50.173Z,10.40
2018-10-06T06:14:18.689Z,11.13
2018-10-06T06:16:47.325Z,11.27
2018-10-06T06:19:15.882Z,9.70
2018-10-06T06:21:44.390Z,10.60
2018-10-06T06:24:12.935Z,11.80
2018-10-06T06:26:41.496Z,11.07
2018-10-06T06:29:10.040Z,10.23
2018-10-06T06:31:38.593Z,10.07
2018-10-06T06:34:07.106Z,9.30
2018-10-06T06:36:35.619Z,11.60
2018-10-06T06:39:04.909Z,9.97
2018-10-06T06:41:33.395Z,9.97
2018-10-06T06:44:01.966Z,9.70
2018-10-06T06:46:30.481Z,10.73
2018-10-06T06:48:59.294Z,9.20
2018-10-06T06:51:27.835Z,9.67
2018-10-06T06:53:56.426Z,9.73
2018-10-06T06:56:24.996Z,8.67
2018-10-06T06:58:53.722Z,7.60
2018-10-06T07:01:22.238Z,7.90
2018-10-06T07:03:50.775Z,6.70
2018-10-06T07:06:19.344Z,6.73
2018-10-06T07:08:47.899Z,6.13
2018-10-06T07:11:16.446Z,7.10
2018-10-06T07:13:45.037Z,6.50
2018-10-06T07:16:13.583Z,6.83
2018-10-06T07:18:42.116Z,6.63
2018-10-06T07:21:10.727Z,6.20
2018-10-06T07:23:39.255Z,6.50
2018-10-06T07:26:07.814Z,5.60
2018-10-06T07:28:36.890Z,6.73
2018-10-06T07:31:05.394Z,5.70
2018-10-06T07:33:33.942Z,5.97
2018-10-06T07:36:02.480Z,5.60
2018-10-06T07:38:31.008Z,5.63
2018-10-06T07:40:59.560Z,6.10
2018-10-06T07:43:28.527Z,6.20
2018-10-06T07:45:57.117Z,5.50
2018-10-06T07:48:25.656Z,5.73
2018-10-06T07:50:54.259Z,5.60
2018-10-06T07:53:22.795Z,6.90
2018-10-06T07:55:51.352Z,6.40
2018-10-06T07:58:19.896Z,6.00
2018-10-06T08:00:48.919Z,6.47
2018-10-06T08:03:17.495Z,5.70
2018-10-06T08:05:46.189Z,5.93
2018-10-06T08:08:14.731Z,5.43
2018-10-06T08:10:43.293Z,5.80
2018-10-06T08:13:11.862Z,5.43
2018-10-06T08:15:40.374Z,5.40
2018-10-06T08:18:08.903Z,6.10
2018-10-06T08:20:37.407Z,4.97
2018-10-06T08:23:06.538Z,5.30
2018-10-06T08:25:35.057Z,4.73
2018-10-06T08:28:03.583Z,3.97
2018-10-06T08:30:32.131Z,4.20
2018-10-06T08:33:00.648Z,3.77
2018-10-06T08:35:29.198Z,3.53
2018-10-06T08:37:57.749Z,4.03
2018-10-06T08:40:26.289Z,4.10
2018-10-06T08:42:54.961Z,3.60
2018-10-06T08:45:23.394Z,3.53
2018-10-06T08:47:51.926Z,3.63
2018-10-06T08:50:20.479Z,3.80
2018-10-06T08:52:49.049Z,3.80
2018-10-06T08:55:17.575Z,3.50
2018-10-06T08:57:46.080Z,3.57
2018-10-06T09:00:14.613Z,3.87
2018-10-06T09:02:43.229Z,3.40
2018-10-06T09:05:11.747Z,3.53
2018-10-06T09:07:40.347Z,3.10
2018-10-06T09:10:09.962Z,3.67
2018-10-06T09:12:38.505Z,3.30
2018-10-06T09:15:07.895Z,3.17
2018-10-06T09:17:36.700Z,3.03
2018-10-06T09:20:05.304Z,3.63
2018-10-06T09:22:33.800Z,3.67
2018-10-06T09:25:02.358Z,3.00
2018-10-06T09:27:30.858Z,2.90
2018-10-06T09:29:59.559Z,3.00
2018-10-06T09:32:28.071Z,2.90
2018-10-06T09:34:56.694Z,3.17
2018-10-06T09:37:25.225Z,3.00
2018-10-06T09:39:53.765Z,3.07
2018-10-06T09:42:22.376Z,3.10
2018-10-06T09:44:51.039Z,3.10
2018-10-06T09:47:19.534Z,2.50
2018-10-06T09:49:48.140Z,2.50
2018-10-06T09:52:16.722Z,2.90
2018-10-06T09:54:45.281Z,2.70
2018-10-06T09:57:13.810Z,2.53
2018-10-06T09:59:42.395Z,3.20
2018-10-06T10:02:15.124Z,2.93
2018-10-06T10:04:43.706Z,2.90
2018-10-06T10:07:12.227Z,2.70
2018-10-06T10:09:40.782Z,2.73
2018-10-06T10:12:09.289Z,3.20
2018-10-06T10:14:37.834Z,2.97
2018-10-06T10:17:06.521Z,2.63
2018-10-06T10:19:34.973Z,2.67
2018-10-06T10:22:03.601Z,2.60
2018-10-06T10:24:32.060Z,2.53
2018-10-06T10:27:00.556Z,2.80
2018-10-06T10:29:29.131Z,2.80
2018-10-06T10:31:57.656Z,3.20
2018-10-06T10:34:26.222Z,2.43
2018-10-06T10:36:54.731Z,2.00
2018-10-06T10:39:23.360Z,2.60
2018-10-06T10:41:58.392Z,3.10
2018-10-06T10:44:26.989Z,2.73
2018-10-06T10:46:55.502Z,3.00
2018-10-06T10:49:24.080Z,2.47
2018-10-06T10:51:52.721Z,2.70
2018-10-06T10:54:21.299Z,2.50
2018-10-06T10:56:49.819Z,3.10
2018-10-06T10:59:18.387Z,3.03
2018-10-06T11:01:46.919Z,2.53
2018-10-06T11:04:15.476Z,2.67
2018-10-06T11:06:44.039Z,2.97
2018-10-06T11:09:12.640Z,2.70
2018-10-06T11:11:41.187Z,2.60
2018-10-06T11:14:09.712Z,2.90
2018-10-06T11:16:38.251Z,3.37
2018-10-06T11:19:06.856Z,2.80
2018-10-06T11:21:35.455Z,2.80
2018-10-06T11:24:03.997Z,2.83
2018-10-06T11:26:32.612Z,3.00
2018-10-06T11:29:01.215Z,3.00
2018-10-06T11:31:29.746Z,3.00
2018-10-06T11:33:58.295Z,2.50
2018-10-06T11:36:26.837Z,2.30
2018-10-06T11:38:55.412Z,2.63
2018-10-06T11:41:23.954Z,3.07
2018-10-06T11:43:52.471Z,2.80
2018-10-06T11:46:21.100Z,2.63
2018-10-06T11:48:49.616Z,2.60
2018-10-06T11:51:18.238Z,2.50
2018-10-06T11:53:46.780Z,2.60
2018-10-06T11:56:15.405Z,3.23
2018-10-06T11:58:43.926Z,3.27
2018-10-06T12:01:12.493Z,2.60
2018-10-06T12:03:41.015Z,3.17
2018-10-06T12:06:09.573Z,2.70
2018-10-06T12:08:38.082Z,2.47
2018-10-06T12:11:06.743Z,3.00
2018-10-06T12:13:35.348Z,2.77
2018-10-06T12:16:03.886Z,2.73
2018-10-06T12:18:32.412Z,2.30
2018-10-06T12:21:00.991Z,3.00
2018-10-06T12:23:29.554Z,2.77
2018-10-06T12:25:58.102Z,3.23
2018-10-06T12:28:26.771Z,2.53
2018-10-06T12:30:55.458Z,2.63
2018-10-06T12:33:24.031Z,2.30
2018-10-06T12:35:52.596Z,3.10
2018-10-06T12:38:21.115Z,2.97
2018-10-06T12:40:49.723Z,2.57
2018-10-06T12:43:18.250Z,3.00
2018-10-06T12:45:46.900Z,4.77
2018-10-06T12:48:15.472Z,2.93
2018-10-06T12:50:43.997Z,3.10
2018-10-06T12:53:12.515Z,3.10
2018-10-06T12:55:41.125Z,2.80
2018-10-06T12:58:09.647Z,3.10
2018-10-06T13:00:38.190Z,2.10
2018-10-06T13:03:06.831Z,2.97
2018-10-06T13:05:35.335Z,2.83
2018-10-06T13:08:03.925Z,2.27
2018-10-06T13:10:32.417Z,2.70
2018-10-06T13:13:01.015Z,2.43
2018-10-06T13:15:29.604Z,2.60
2018-10-06T13:17:58.183Z,2.63
2018-10-06T13:20:26.696Z,2.67
2018-10-06T13:22:55.238Z,2.33
2018-10-06T13:25:23.731Z,2.33
2018-10-06T13:27:52.286Z,2.20
2018-10-06T13:30:20.889Z,2.10
2018-10-06T13:32:49.462Z,2.00
2018-10-06T13:35:17.996Z,2.10
2018-10-06T13:37:46.650Z,2.10
2018-10-06T13:40:15.487Z,2.07
2018-10-06T13:42:44.043Z,2.60
2018-10-06T13:45:12.651Z,2.53
2018-10-06T13:47:41.196Z,2.20
2018-10-06T13:50:09.783Z,2.20
2018-10-06T13:52:38.411Z,1.90
2018-10-06T13:55:06.952Z,1.90
2018-10-06T13:57:35.491Z,2.40
2018-10-06T14:00:04.124Z,2.03
2018-10-06T14:02:32.683Z,2.67
2018-10-06T14:05:01.268Z,2.17
2018-10-06T14:07:29.885Z,2.40
2018-10-06T14:09:58.429Z,1.73
2018-10-06T14:12:26.979Z,2.03
2018-10-06T14:14:55.524Z,1.90
2018-10-06T14:17:24.075Z,2.17
2018-10-06T14:19:52.606Z,2.37
2018-10-06T14:22:21.264Z,2.23
2018-10-06T14:24:49.846Z,2.23
2018-10-06T14:27:18.406Z,3.20
2018-10-06T14:29:46.967Z,3.10
2018-10-06T14:32:15.478Z,2.97
2018-10-06T14:34:44.016Z,2.80
2018-10-06T14:37:12.584Z,2.93
2018-10-06T14:39:41.201Z,2.10
2018-10-06T14:42:09.854Z,2.23
2018-10-06T14:44:38.396Z,2.20
2018-10-06T14:47:06.987Z,2.07
2018-10-06T14:49:35.502Z,2.10
2018-10-06T14:52:04.069Z,2.13
2018-10-06T14:54:32.590Z,2.30
2018-10-06T14:57:01.155Z,2.10
2018-10-06T14:59:29.675Z,2.00
2018-10-06T15:01:58.249Z,2.23
2018-10-06T15:04:26.814Z,2.20
2018-10-06T15:06:55.366Z,2.53
2018-10-06T15:09:23.883Z,1.87
2018-10-06T15:11:52.405Z,2.10
2018-10-06T15:14:20.950Z,1.90
2018-10-06T15:16:49.464Z,2.20
2018-10-06T15:19:17.997Z,2.07
2018-10-06T15:21:46.500Z,2.77
2018-10-06T15:24:15.032Z,2.10
2018-10-06T15:26:43.582Z,1.80
2018-10-06T15:29:12.102Z,2.17
2018-10-06T15:31:40.716Z,2.17
2018-10-06T15:34:09.259Z,1.90
2018-10-06T15:36:38.719Z,2.10
2018-10-06T15:39:08.492Z,2.03
2018-10-06T15:41:37.090Z,2.20
2018-10-06T15:44:05.668Z,2.17
2018-10-06T15:46:34.215Z,2.20
2018-10-06T15:49:02.786Z,2.40
2018-10-06T15:51:31.335Z,2.50
2018-10-06T15:54:00.178Z,2.50
2018-10-06T15:56:28.785Z,2.93
2018-10-06T15:58:57.348Z,2.40
2018-10-06T16:01:25.915Z,2.43
2018-10-06T16:03:54.465Z,2.13
2018-10-06T16:06:23.011Z,2.87
2018-10-06T16:08:51.928Z,2.50
2018-10-06T16:11:20.438Z,2.60
2018-10-06T16:13:48.978Z,2.70
2018-10-06T16:16:17.518Z,2.37
2018-10-06T16:18:46.096Z,2.60
2018-10-06T16:21:14.633Z,2.10
2018-10-06T16:23:43.163Z,2.73
2018-10-06T16:26:11.795Z,3.00
2018-10-06T16:28:40.319Z,2.80
2018-10-06T16:31:08.870Z,2.90
2018-10-06T16:33:37.419Z,3.10
2018-10-06T16:36:05.909Z,2.83
2018-10-06T16:38:34.628Z,2.50
2018-10-06T16:41:03.186Z,2.90
2018-10-06T16:43:31.696Z,3.20
2018-10-06T16:46:00.320Z,6.13
2018-10-06T16:48:28.835Z,3.57
2018-10-06T16:50:57.372Z,3.50
2018-10-06T16:53:25.992Z,2.80
2018-10-06T16:55:54.507Z,2.90
2018-10-06T16:58:23.008Z,3.10
2018-10-06T17:00:51.579Z,3.77
2018-10-06T17:03:20.104Z,3.57
2018-10-06T17:05:48.701Z,4.93
2018-10-06T17:08:17.267Z,5.10
2018-10-06T17:10:45.824Z,4.60
2018-10-06T17:13:14.362Z,4.73
2018-10-06T17:15:42.924Z,4.00
2018-10-06T17:18:11.424Z,3.90
2018-10-06T17:20:39.950Z,3.17
2018-10-06T17:23:08.459Z,3.37
2018-10-06T17:25:36.984Z,3.03
2018-10-06T17:28:05.501Z,3.00
2018-10-06T17:30:34.007Z,3.70
2018-10-06T17:33:02.510Z,2.80
2018-10-06T17:35:31.027Z,3.50
2018-10-06T17:37:59.511Z,2.63
2018-10-06T17:40:27.986Z,3.67
2018-10-06T17:42:56.518Z,3.00
2018-10-06T17:45:25.062Z,2.70
2018-10-06T17:47:53.578Z,3.03
2018-10-06T17:50:22.154Z,3.10
2018-10-06T17:52:50.898Z,3.43
2018-10-06T17:55:19.427Z,3.87
2018-10-06T17:57:47.978Z,3.27
2018-10-06T18:00:16.567Z,3.00
2018-10-06T18:02:45.114Z,2.73
2018-10-06T18:05:13.818Z,3.20
2018-10-06T18:07:42.682Z,3.03
2018-10-06T18:10:11.536Z,3.03
2018-10-06T18:12:40.149Z,3.70
2018-10-06T18:15:08.694Z,3.37
2018-10-06T18:17:37.252Z,3.00
2018-10-06T18:20:05.996Z,4.80
2018-10-06T18:22:34.489Z,5.50
2018-10-06T18:25:04.467Z,4.87
2018-10-06T18:27:32.991Z,4.80
2018-10-06T18:30:02.696Z,3.60
2018-10-06T18:32:33.927Z,3.47
2018-10-06T18:35:02.627Z,3.97
2018-10-06T18:37:31.156Z,3.90
2018-10-06T18:39:59.672Z,4.20
2018-10-06T18:42:29.151Z,3.60
2018-10-06T18:44:57.898Z,3.60
2018-10-06T18:47:26.859Z,4.33
2018-10-06T18:49:55.785Z,3.90
2018-10-06T18:52:24.673Z,5.10
2018-10-06T18:54:53.210Z,4.10
2018-10-06T18:57:21.713Z,4.77
2018-10-06T18:59:50.235Z,4.83
2018-10-06T19:02:18.908Z,4.13
2018-10-06T19:04:47.593Z,4.10
2018-10-06T19:07:16.188Z,4.80
2018-10-06T19:09:44.760Z,4.80
2018-10-06T19:12:13.387Z,4.50
2018-10-06T19:14:41.999Z,4.57
2018-10-06T19:17:10.527Z,4.70
2018-10-06T19:19:39.281Z,3.57
2018-10-06T19:22:07.771Z,5.00
2018-10-06T19:24:36.469Z,4.40
2018-10-06T19:27:05.000Z,4.10
2018-10-06T19:29:33.545Z,3.70
2018-10-06T19:32:02.087Z,4.50
2018-10-06T19:34:30.671Z,4.30
2018-10-06T19:36:59.175Z,4.00
2018-10-06T19:39:27.684Z,4.20
2018-10-06T19:41:56.243Z,4.80
2018-10-06T19:44:24.751Z,5.20
2018-10-06T19:46:53.287Z,5.10
2018-10-06T19:49:21.792Z,5.50
2018-10-06T19:51:50.355Z,5.10
2018-10-06T19:54:18.839Z,4.33
2018-10-06T19:56:47.334Z,4.83
2018-10-06T19:59:15.839Z,4.70
2018-10-06T20:01:44.355Z,5.17
2018-10-06T20:04:12.931Z,5.20
2018-10-06T20:06:41.451Z,5.60
2018-10-06T20:09:10.887Z,6.13
2018-10-06T20:11:39.730Z,6.03
2018-10-06T20:14:08.565Z,6.00
2018-10-06T20:16:37.074Z,6.60
2018-10-06T20:19:05.611Z,5.60
2018-10-06T20:21:34.147Z,5.20
2018-10-06T20:24:02.804Z,4.60
2018-10-06T20:26:31.283Z,5.50
2018-10-06T20:28:59.775Z,5.23
2018-10-06T20:31:28.283Z,5.87
2018-10-06T20:33:56.799Z,4.40
2018-10-06T20:36:25.316Z,5.30
2018-10-06T20:38:53.836Z,5.90
2018-10-06T20:41:22.351Z,5.30
2018-10-06T20:43:50.860Z,6.20
2018-10-06T20:46:19.385Z,6.00
2018-10-06T20:48:47.940Z,6.60
2018-10-06T20:51:16.508Z,6.37
2018-10-06T20:53:45.094Z,5.87
2018-10-06T20:56:13.620Z,6.97
2018-10-06T20:58:42.157Z,6.80
2018-10-06T21:01:10.683Z,7.47
2018-10-06T21:03:39.218Z,8.30
2018-10-06T21:06:07.790Z,6.60
2018-10-06T21:08:36.319Z,6.60
2018-10-06T21:11:04.896Z,6.87
2018-10-06T21:13:33.433Z,6.77
2018-10-06T21:16:01.948Z,6.40
2018-10-06T21:18:30.683Z,6.80
2018-10-06T21:20:59.218Z,6.87
2018-10-06T21:23:27.748Z,6.60
2018-10-06T21:25:56.296Z,6.27
2018-10-06T21:28:24.816Z,7.30
2018-10-06T21:30:53.436Z,7.37
2018-10-06T21:33:21.958Z,7.20
2018-10-06T21:35:50.546Z,7.87
2018-10-06T21:38:19.113Z,7.80
2018-10-06T21:40:47.778Z,13.27
2018-10-06T21:43:16.315Z,16.67
2018-10-06T21:45:44.819Z,22.00
2018-10-06T21:48:13.336Z,31.90
2018-10-06T21:50:41.945Z,15.30
2018-10-06T21:53:10.458Z,10.67
2018-10-06T21:55:38.947Z,10.30
2018-10-06T21:58:07.470Z,9.40
2018-10-06T22:00:36.104Z,10.60
2018-10-06T22:03:04.654Z,9.07
2018-10-06T22:05:33.187Z,8.73
2018-10-06T22:08:01.696Z,9.30
2018-10-06T22:10:30.207Z,8.90
2018-10-06T22:12:58.744Z,10.33
2018-10-06T22:15:27.297Z,7.50
2018-10-06T22:17:55.783Z,8.70
2018-10-06T22:20:24.304Z,8.43
2018-10-06T22:22:52.825Z,8.50
2018-10-06T22:25:21.339Z,7.67
2018-10-06T22:27:49.884Z,8.07
2018-10-06T22:30:18.393Z,8.70
2018-10-06T22:32:46.899Z,7.80
2018-10-06T22:35:15.408Z,9.00
2018-10-06T22:37:43.965Z,7.63
2018-10-06T22:40:12.498Z,8.50
2018-10-06T22:42:41.063Z,8.20
2018-10-06T22:45:09.610Z,7.67
2018-10-06T22:47:38.103Z,8.80
2018-10-06T22:50:06.789Z,9.43
2018-10-06T22:52:35.339Z,8.97
2018-10-06T22:55:03.947Z,9.40
2018-10-06T22:57:32.443Z,8.47
2018-10-06T23:00:00.948Z,8.93
2018-10-06T23:02:29.464Z,9.80
2018-10-06T23:04:58.016Z,10.00
2018-10-06T23:07:26.560Z,9.70
2018-10-06T23:09:55.180Z,10.20
2018-10-06T23:12:23.730Z,9.43
2018-10-06T23:14:52.312Z,10.37
2018-10-06T23:17:20.841Z,8.97
2018-10-06T23:19:49.406Z,10.83
2018-10-06T23:22:17.922Z,11.47
2018-10-06T23:24:46.420Z,11.17
2018-10-06T23:27:14.979Z,10.90
2018-10-06T23:29:43.470Z,11.60
2018-10-06T23:32:11.976Z,10.77
2018-10-06T23:34:40.495Z,11.80
2018-10-06T23:37:09.013Z,11.47
2018-10-06T23:39:37.502Z,11.97
2018-10-06T23:42:06.437Z,11.13
2018-10-06T23:44:34.939Z,10.03
2018-10-06T23:47:03.497Z,10.60
2018-10-06T23:49:31.971Z,10.53
2018-10-06T23:52:00.510Z,11.20
2018-10-06T23:54:29.031Z,9.47
2018-10-06T23:56:57.545Z,11.07
2018-10-06T23:59:26.039Z,11.20
